createdAt,value
2018-03-27T00:01:31.068Z,4.10
2018-03-27T00:03:57.206Z,4.10
2018-03-27T00:06:23.364Z,4.10
2018-03-27T00:08:49.496Z,4.10
2018-03-27T00:11:15.661Z,4.10
2018-03-27T00:13:41.831Z,4.10
2018-03-27T00:16:08.013Z,4.00
2018-03-27T00:18:34.156Z,4.00
2018-03-27T00:21:00.321Z,4.00
2018-03-27T00:23:26.471Z,3.90
2018-03-27T00:25:52.621Z,4.00
2018-03-27T00:28:31.246Z,4.00
2018-03-27T00:31:09.642Z,4.00
2018-03-27T00:33:48.029Z,3.90
2018-03-27T00:36:27.122Z,3.90
2018-03-27T00:39:05.554Z,3.90
2018-03-27T00:44:41.440Z,3.80
2018-03-27T00:47:07.939Z,3.80
2018-03-27T00:49:35.119Z,3.80
2018-03-27T00:52:01.560Z,3.70
2018-03-27T00:54:32.388Z,3.70
2018-03-27T00:56:58.809Z,3.70
2018-03-27T00:59:25.242Z,3.70
2018-03-27T01:04:51.380Z,3.70
2018-03-27T01:07:18.548Z,3.70
2018-03-27T01:09:45.936Z,3.70
2018-03-27T01:12:13.087Z,3.70
2018-03-27T01:14:51.277Z,3.70
2018-03-27T01:17:17.714Z,3.70
2018-03-27T01:19:44.178Z,3.70
2018-03-27T01:22:12.744Z,3.70
2018-03-27T01:24:39.176Z,3.70
2018-03-27T01:27:05.640Z,3.80
2018-03-27T01:29:32.944Z,3.70
2018-03-27T01:31:59.382Z,3.70
2018-03-27T01:34:26.542Z,3.70
2018-03-27T01:36:53.750Z,3.70
2018-03-27T01:39:20.163Z,3.70
2018-03-27T01:41:46.646Z,3.70
2018-03-27T01:44:13.075Z,3.70
2018-03-27T01:46:40.261Z,3.60
2018-03-27T01:49:21.045Z,3.60
2018-03-27T01:51:48.200Z,3.60
2018-03-27T01:54:15.389Z,3.60
2018-03-27T01:56:49.925Z,3.50
2018-03-27T01:59:17.093Z,3.50
2018-03-27T02:01:44.258Z,3.40
2018-03-27T02:04:11.428Z,3.40
2018-03-27T02:06:47.449Z,3.30
2018-03-27T02:09:13.883Z,3.30
2018-03-27T02:11:46.245Z,3.30
2018-03-27T02:14:35.110Z,3.30
2018-03-27T02:17:07.644Z,3.20
2018-03-27T02:19:40.202Z,3.30
2018-03-27T02:22:06.506Z,3.30
2018-03-27T02:24:38.216Z,3.30
2018-03-27T02:27:05.390Z,3.20
2018-03-27T02:29:32.538Z,3.20
2018-03-27T02:31:58.947Z,3.20
2018-03-27T02:34:47.731Z,3.20
2018-03-27T02:37:14.191Z,3.20
2018-03-27T02:39:40.686Z,3.20
2018-03-27T02:42:07.140Z,3.20
2018-03-27T02:44:33.547Z,3.20
2018-03-27T02:50:05.476Z,3.20
2018-03-27T02:52:32.650Z,3.20
2018-03-27T02:54:59.903Z,3.20
2018-03-27T02:57:27.070Z,3.20
2018-03-27T02:59:59.428Z,3.20
2018-03-27T03:02:25.838Z,3.10
2018-03-27T03:04:52.254Z,3.10
2018-03-27T03:07:18.725Z,3.10
2018-03-27T03:09:47.161Z,3.10
2018-03-27T03:12:13.611Z,3.10
2018-03-27T03:14:40.006Z,3.10
2018-03-27T03:17:06.446Z,3.10
2018-03-27T03:19:50.232Z,3.10
2018-03-27T03:22:16.696Z,3.10
2018-03-27T03:24:43.102Z,3.10
2018-03-27T03:27:09.490Z,3.10
2018-03-27T03:29:35.979Z,3.00
2018-03-27T03:32:03.206Z,3.10
2018-03-27T03:34:29.713Z,3.10
2018-03-27T03:36:57.553Z,3.40
2018-03-27T03:39:24.127Z,3.40
2018-03-27T03:41:51.969Z,3.60
2018-03-27T03:44:18.417Z,3.60
2018-03-27T03:46:44.844Z,3.70
2018-03-27T03:49:12.031Z,3.70
2018-03-27T03:51:39.637Z,3.70
2018-03-27T03:54:06.007Z,3.70
2018-03-27T03:56:32.524Z,3.70
2018-03-27T03:58:58.933Z,3.70
2018-03-27T04:01:25.362Z,3.70
2018-03-27T04:03:51.764Z,3.70
2018-03-27T04:06:19.018Z,3.50
2018-03-27T04:08:46.345Z,3.50
2018-03-27T04:11:12.832Z,3.50
2018-03-27T04:13:39.356Z,3.50
2018-03-27T04:16:06.886Z,3.50
2018-03-27T04:18:33.334Z,3.50
2018-03-27T04:20:59.782Z,3.40
2018-03-27T04:23:26.252Z,3.40
2018-03-27T04:25:53.683Z,3.40
2018-03-27T04:28:20.818Z,3.30
2018-03-27T04:30:48.006Z,3.30
2018-03-27T04:33:15.607Z,3.30
2018-03-27T04:35:42.879Z,3.20
2018-03-27T04:38:10.062Z,3.20
2018-03-27T04:40:38.608Z,3.10
2018-03-27T04:43:05.085Z,3.10
2018-03-27T04:45:32.249Z,3.10
2018-03-27T04:47:58.680Z,3.10
2018-03-27T04:50:25.147Z,3.20
2018-03-27T04:52:51.566Z,3.20
2018-03-27T04:55:18.000Z,3.20
2018-03-27T04:57:45.167Z,3.10
2018-03-27T05:00:12.330Z,3.10
2018-03-27T05:02:39.540Z,3.10
2018-03-27T05:05:06.030Z,3.10
2018-03-27T05:07:32.464Z,3.10
2018-03-27T05:09:59.817Z,3.10
2018-03-27T05:12:26.328Z,3.10
2018-03-27T05:14:52.941Z,3.10
2018-03-27T05:17:19.381Z,3.10
2018-03-27T05:19:46.575Z,3.10
2018-03-27T05:22:13.128Z,3.10
2018-03-27T05:24:39.571Z,3.10
2018-03-27T05:27:06.685Z,3.10
2018-03-27T05:29:33.110Z,3.00
2018-03-27T05:31:59.518Z,3.00
2018-03-27T05:34:26.012Z,3.00
2018-03-27T05:36:53.148Z,3.10
2018-03-27T05:39:19.591Z,3.00
2018-03-27T05:41:46.101Z,3.10
2018-03-27T05:44:13.279Z,3.10
2018-03-27T05:46:39.704Z,3.10
2018-03-27T05:49:06.884Z,3.10
2018-03-27T05:51:33.299Z,3.10
2018-03-27T05:53:59.723Z,3.10
2018-03-27T05:56:26.158Z,3.10
2018-03-27T05:58:53.648Z,3.10
2018-03-27T06:01:20.852Z,3.10
2018-03-27T06:03:47.256Z,3.10
2018-03-27T06:06:13.648Z,3.20
2018-03-27T06:08:40.060Z,3.20
2018-03-27T06:11:06.481Z,3.30
2018-03-27T06:13:32.964Z,3.40
2018-03-27T06:15:59.557Z,3.40
2018-03-27T06:18:26.879Z,3.40
2018-03-27T06:20:53.316Z,3.40
2018-03-27T06:23:19.847Z,3.40
2018-03-27T06:25:47.024Z,3.40
2018-03-27T06:28:13.474Z,3.30
2018-03-27T06:30:40.710Z,3.40
2018-03-27T06:33:07.208Z,3.30
2018-03-27T06:35:33.663Z,3.40
2018-03-27T06:38:00.938Z,3.40
2018-03-27T06:40:27.418Z,3.40
2018-03-27T06:42:54.265Z,3.50
2018-03-27T06:45:20.693Z,3.50
2018-03-27T06:47:47.373Z,3.50
2018-03-27T06:50:13.786Z,3.50
2018-03-27T06:52:40.261Z,3.50
2018-03-27T06:55:07.564Z,3.20
2018-03-27T06:57:34.950Z,3.20
2018-03-27T07:00:01.578Z,3.20
2018-03-27T07:02:29.007Z,3.20
2018-03-27T07:04:55.469Z,3.20
2018-03-27T07:07:22.003Z,3.20
2018-03-27T07:09:48.470Z,3.20
2018-03-27T07:12:14.955Z,3.30
2018-03-27T07:14:41.521Z,3.40
2018-03-27T07:17:08.798Z,3.60
2018-03-27T07:19:36.012Z,3.70
2018-03-27T07:22:02.463Z,3.70
2018-03-27T07:24:30.257Z,3.90
2018-03-27T07:26:56.749Z,3.90
2018-03-27T07:29:23.161Z,3.90
2018-03-27T07:31:50.442Z,3.80
2018-03-27T07:34:18.178Z,3.70
2018-03-27T07:36:44.600Z,3.70
2018-03-27T07:39:11.043Z,3.70
2018-03-27T07:41:37.502Z,3.70
2018-03-27T07:44:03.982Z,3.70
2018-03-27T07:46:30.510Z,3.70
2018-03-27T07:48:56.974Z,3.90
2018-03-27T07:51:23.414Z,4.00
2018-03-27T07:53:50.588Z,4.30
2018-03-27T07:56:17.868Z,4.30
2018-03-27T07:58:45.036Z,4.30
2018-03-27T08:01:12.182Z,4.30
2018-03-27T08:03:38.772Z,4.20
2018-03-27T08:06:06.052Z,4.40
2018-03-27T08:08:32.525Z,4.30
2018-03-27T08:10:59.099Z,4.40
2018-03-27T08:13:25.539Z,4.50
2018-03-27T08:15:52.077Z,4.50
2018-03-27T08:18:19.223Z,4.40
2018-03-27T08:20:45.704Z,4.40
2018-03-27T08:23:12.885Z,4.20
2018-03-27T08:25:39.316Z,4.10
2018-03-27T08:28:06.469Z,4.10
2018-03-27T08:30:32.917Z,4.10
2018-03-27T08:32:59.332Z,4.10
2018-03-27T08:35:25.876Z,4.20
2018-03-27T08:37:52.325Z,4.20
2018-03-27T08:40:19.471Z,4.30
2018-03-27T08:42:45.960Z,4.20
2018-03-27T08:45:13.108Z,4.50
2018-03-27T08:47:40.264Z,4.50
2018-03-27T08:50:06.867Z,4.50
2018-03-27T08:52:33.319Z,4.70
2018-03-27T08:55:00.486Z,7.50
2018-03-27T08:57:27.665Z,9.60
2018-03-27T08:59:54.843Z,11.00
2018-03-27T09:02:21.396Z,11.00
2018-03-27T09:04:47.881Z,11.40
2018-03-27T09:07:14.317Z,11.40
2018-03-27T09:09:40.743Z,11.00
2018-03-27T09:12:07.151Z,10.40
2018-03-27T09:14:33.565Z,9.90
2018-03-27T09:17:00.764Z,8.50
2018-03-27T09:19:27.179Z,8.50
2018-03-27T09:21:54.632Z,8.00
2018-03-27T09:24:21.136Z,7.70
2018-03-27T09:26:48.284Z,7.70
2018-03-27T09:29:14.728Z,7.70
2018-03-27T09:31:41.900Z,7.90
2018-03-27T09:34:08.316Z,7.80
2018-03-27T09:36:34.851Z,7.90
2018-03-27T09:39:01.295Z,7.90
2018-03-27T09:41:28.466Z,8.00
2018-03-27T09:43:55.795Z,8.20
2018-03-27T09:46:22.294Z,8.20
2018-03-27T09:48:48.708Z,8.50
2018-03-27T09:51:15.223Z,8.70
2018-03-27T09:53:42.831Z,9.00
2018-03-27T09:56:09.246Z,9.00
2018-03-27T09:58:36.418Z,9.20
2018-03-27T10:01:08.542Z,9.10
2018-03-27T10:03:34.995Z,9.10
2018-03-27T10:06:01.407Z,9.00
2018-03-27T10:08:27.949Z,8.80
2018-03-27T10:10:55.160Z,8.90
2018-03-27T10:13:21.580Z,9.10
2018-03-27T10:15:48.046Z,9.30
2018-03-27T10:18:14.630Z,9.50
2018-03-27T10:20:41.088Z,9.60
2018-03-27T10:23:08.300Z,9.70
2018-03-27T10:25:34.760Z,9.70
2018-03-27T10:28:01.330Z,9.80
2018-03-27T10:30:27.831Z,9.80
2018-03-27T10:32:54.982Z,9.90
2018-03-27T10:35:21.563Z,9.80
2018-03-27T10:37:48.020Z,9.80
2018-03-27T10:40:15.292Z,10.00
2018-03-27T10:42:42.494Z,9.90
2018-03-27T10:45:08.942Z,9.90
2018-03-27T10:47:35.481Z,9.80
2018-03-27T10:50:01.892Z,9.90
2018-03-27T10:52:28.335Z,10.10
2018-03-27T10:54:54.776Z,10.10
2018-03-27T10:57:21.215Z,10.10
2018-03-27T10:59:47.663Z,10.00
2018-03-27T11:02:14.121Z,9.90
2018-03-27T11:04:40.605Z,9.90
2018-03-27T11:07:07.085Z,10.00
2018-03-27T11:09:34.258Z,10.00
2018-03-27T11:12:00.766Z,10.00
2018-03-27T11:14:27.261Z,10.00
2018-03-27T11:16:53.763Z,10.00
2018-03-27T11:19:20.257Z,10.10
2018-03-27T11:21:46.789Z,10.20
2018-03-27T11:24:14.066Z,10.20
2018-03-27T11:26:41.493Z,10.20
2018-03-27T11:29:08.824Z,10.10
2018-03-27T11:31:35.326Z,10.10
2018-03-27T11:34:01.783Z,10.00
2018-03-27T11:36:28.236Z,9.90
2018-03-27T11:38:54.743Z,9.90
2018-03-27T11:41:22.022Z,9.80
2018-03-27T11:43:49.235Z,9.60
2018-03-27T11:46:15.752Z,9.60
2018-03-27T11:48:42.942Z,9.50
2018-03-27T11:51:09.459Z,9.50
2018-03-27T11:53:35.965Z,9.40
2018-03-27T11:56:02.469Z,9.30
2018-03-27T11:58:28.915Z,9.30
2018-03-27T12:00:55.405Z,9.50
2018-03-27T12:03:21.969Z,9.70
2018-03-27T12:05:48.479Z,9.80
2018-03-27T12:08:14.932Z,9.90
2018-03-27T12:10:41.347Z,10.10
2018-03-27T12:13:08.203Z,10.10
2018-03-27T12:15:34.640Z,10.10
2018-03-27T12:18:01.932Z,9.80
2018-03-27T12:20:29.143Z,9.70
2018-03-27T12:22:55.613Z,9.60
2018-03-27T12:25:22.118Z,9.60
2018-03-27T12:27:49.270Z,9.60
2018-03-27T12:30:15.747Z,9.60
2018-03-27T12:32:42.308Z,9.50
2018-03-27T12:35:09.548Z,9.20
2018-03-27T12:37:36.101Z,9.20
2018-03-27T12:40:02.601Z,9.20
2018-03-27T12:42:29.046Z,9.20
2018-03-27T12:44:56.203Z,9.40
2018-03-27T12:47:22.672Z,9.40
2018-03-27T12:49:50.333Z,9.70
2018-03-27T12:52:16.779Z,9.70
2018-03-27T12:54:43.209Z,9.80
2018-03-27T12:57:09.669Z,9.80
2018-03-27T12:59:36.809Z,9.90
2018-03-27T13:02:03.288Z,10.00
2018-03-27T13:04:29.785Z,9.90
2018-03-27T13:06:57.077Z,10.00
2018-03-27T13:09:24.299Z,10.10
2018-03-27T13:11:51.678Z,10.10
2018-03-27T13:14:19.531Z,10.00
2018-03-27T13:16:46.190Z,10.00
2018-03-27T13:19:13.488Z,9.80
2018-03-27T13:21:40.111Z,9.70
2018-03-27T13:37:08.876Z,10.20
2018-03-27T13:39:35.523Z,10.10
2018-03-27T13:42:03.427Z,10.00
2018-03-27T13:44:30.392Z,10.00
2018-03-27T13:46:56.952Z,10.00
2018-03-27T13:49:23.393Z,10.10
2018-03-27T13:51:50.682Z,10.20
2018-03-27T13:54:17.841Z,10.10
2018-03-27T13:56:45.126Z,10.00
2018-03-27T13:59:11.687Z,9.90
2018-03-27T14:01:38.555Z,9.80
2018-03-27T14:04:05.218Z,9.70
2018-03-27T14:06:31.785Z,9.70
2018-03-27T14:08:58.435Z,9.60
2018-03-27T14:11:26.014Z,9.70
2018-03-27T14:13:53.781Z,9.60
2018-03-27T14:16:21.073Z,9.50
2018-03-27T14:18:48.279Z,9.40
2018-03-27T14:21:14.771Z,9.30
2018-03-27T14:23:41.283Z,9.30
2018-03-27T14:26:07.734Z,9.30
2018-03-27T14:28:34.184Z,9.30
2018-03-27T14:31:00.840Z,9.30
2018-03-27T14:33:27.394Z,9.30
2018-03-27T14:35:54.577Z,9.20
2018-03-27T14:38:21.124Z,9.20
2018-03-27T14:40:48.498Z,9.10
2018-03-27T14:43:15.856Z,9.00
2018-03-27T14:45:42.642Z,9.00
2018-03-27T14:48:10.223Z,8.90
2018-03-27T14:50:37.601Z,8.90
2018-03-27T14:53:04.129Z,8.90
2018-03-27T14:55:30.718Z,8.80
2018-03-27T14:57:57.270Z,8.80
2018-03-27T15:00:24.244Z,8.80
2018-03-27T15:02:51.619Z,8.60
2018-03-27T15:05:18.182Z,8.60
2018-03-27T15:07:44.654Z,8.50
2018-03-27T15:10:11.129Z,8.50
2018-03-27T15:12:37.751Z,8.50
2018-03-27T15:15:05.337Z,8.50
2018-03-27T15:17:31.793Z,8.50
2018-03-27T15:19:58.256Z,8.60
2018-03-27T15:22:24.907Z,8.70
2018-03-27T15:24:51.569Z,8.90
2018-03-27T15:27:18.129Z,9.00
2018-03-27T15:29:44.623Z,9.00
2018-03-27T15:32:11.140Z,9.00
2018-03-27T15:34:38.371Z,8.70
2018-03-27T15:37:04.868Z,8.80
2018-03-27T15:39:32.961Z,8.30
2018-03-27T15:42:03.134Z,8.20
2018-03-27T15:44:29.725Z,8.20
2018-03-27T15:46:56.190Z,8.00
2018-03-27T15:49:22.696Z,7.90
2018-03-27T15:51:49.347Z,7.90
2018-03-27T15:54:16.103Z,7.80
2018-03-27T15:56:42.530Z,7.80
2018-03-27T15:59:08.994Z,7.70
2018-03-27T16:01:36.290Z,7.60
2018-03-27T16:04:02.845Z,7.60
2018-03-27T16:06:30.121Z,7.60
2018-03-27T16:08:57.603Z,7.50
2018-03-27T16:11:24.139Z,7.50
2018-03-27T16:13:52.151Z,7.50
2018-03-27T16:16:18.811Z,7.50
2018-03-27T16:18:45.472Z,7.50
2018-03-27T16:21:12.519Z,7.40
2018-03-27T16:23:39.104Z,7.20
2018-03-27T16:26:06.040Z,7.20
2018-03-27T16:28:32.468Z,7.10
2018-03-27T16:30:59.604Z,7.00
2018-03-27T16:33:26.251Z,7.00
2018-03-27T16:35:54.493Z,6.90
2018-03-27T16:38:21.614Z,6.90
2018-03-27T16:40:48.998Z,6.80
2018-03-27T16:43:15.496Z,6.80
2018-03-27T16:45:43.243Z,6.70
2018-03-27T16:48:10.311Z,6.60
2018-03-27T16:50:36.972Z,6.50
2018-03-27T16:53:04.653Z,6.40
2018-03-27T16:55:33.757Z,6.20
2018-03-27T16:58:02.168Z,6.20
2018-03-27T17:00:28.662Z,6.10
2018-03-27T17:02:57.205Z,6.10
2018-03-27T17:05:23.889Z,6.00
2018-03-27T17:07:50.549Z,6.00
2018-03-27T17:10:18.102Z,5.80
2018-03-27T17:12:44.601Z,5.80
2018-03-27T17:15:12.008Z,5.70
2018-03-27T17:17:38.524Z,5.70
2018-03-27T17:20:05.284Z,5.60
2018-03-27T17:22:31.997Z,5.50
2018-03-27T17:24:58.520Z,5.40
2018-03-27T17:27:25.068Z,5.40
2018-03-27T17:29:52.208Z,5.30
2018-03-27T17:32:18.693Z,5.20
2018-03-27T17:34:45.917Z,5.10
2018-03-27T17:37:14.274Z,4.90
2018-03-27T17:39:41.438Z,4.90
2018-03-27T17:42:10.922Z,4.70
2018-03-27T17:44:39.057Z,4.70
2018-03-27T17:47:08.766Z,4.70
2018-03-27T17:49:38.338Z,4.60
2018-03-27T17:52:05.158Z,4.50
2018-03-27T17:54:33.069Z,4.40
2018-03-27T17:56:59.565Z,4.40
2018-03-27T17:59:26.064Z,4.40
2018-03-27T18:01:55.607Z,4.30
2018-03-27T18:04:22.108Z,4.30
2018-03-27T18:06:50.560Z,4.30
2018-03-27T18:09:17.219Z,4.30
2018-03-27T18:11:44.672Z,4.30
2018-03-27T18:14:11.568Z,4.20
2018-03-27T18:16:38.201Z,4.30
2018-03-27T18:19:04.871Z,4.30
2018-03-27T18:21:32.144Z,4.30
2018-03-27T18:23:59.423Z,4.30
2018-03-27T18:26:25.894Z,4.20
2018-03-27T18:28:52.418Z,4.30
2018-03-27T18:31:19.851Z,4.30
2018-03-27T18:33:46.493Z,4.30
2018-03-27T18:36:12.954Z,4.30
2018-03-27T18:38:39.505Z,4.20
2018-03-27T18:41:06.058Z,4.20
2018-03-27T18:43:33.276Z,4.20
2018-03-27T18:45:59.900Z,4.10
2018-03-27T18:48:26.417Z,4.10
2018-03-27T18:50:53.066Z,4.10
2018-03-27T18:53:19.576Z,4.10
2018-03-27T18:55:46.142Z,4.00
2018-03-27T18:58:12.692Z,4.10
2018-03-27T19:00:40.067Z,4.10
2018-03-27T19:03:06.728Z,4.10
2018-03-27T19:05:34.154Z,4.10
2018-03-27T19:08:01.587Z,4.10
2018-03-27T19:10:28.953Z,4.10
2018-03-27T19:12:56.029Z,4.10
2018-03-27T19:15:23.002Z,4.00
2018-03-27T19:17:49.964Z,4.10
2018-03-27T19:20:18.847Z,4.20
2018-03-27T19:22:47.257Z,4.30
2018-03-27T19:25:14.759Z,4.30
2018-03-27T19:27:44.487Z,4.30
2018-03-27T19:30:11.102Z,4.30
2018-03-27T19:32:39.446Z,4.40
2018-03-27T19:35:06.819Z,4.40
2018-03-27T19:37:33.996Z,4.40
2018-03-27T19:40:01.160Z,4.40
2018-03-27T19:42:31.472Z,4.40
2018-03-27T19:44:59.785Z,4.40
2018-03-27T19:47:27.078Z,4.40
2018-03-27T19:49:54.381Z,4.40
2018-03-27T19:52:20.820Z,4.40
2018-03-27T19:54:47.300Z,4.40
2018-03-27T19:57:13.753Z,4.50
2018-03-27T19:59:40.332Z,4.50
2018-03-27T20:02:06.821Z,4.50
2018-03-27T20:04:34.128Z,4.50
2018-03-27T20:07:03.139Z,4.50
2018-03-27T20:09:29.638Z,4.50
2018-03-27T20:11:56.918Z,4.40
2018-03-27T20:14:23.520Z,4.30
2018-03-27T20:16:50.181Z,4.30
2018-03-27T20:19:16.614Z,4.20
2018-03-27T20:21:43.194Z,4.10
2018-03-27T20:24:10.424Z,4.10
2018-03-27T20:26:37.462Z,4.10
2018-03-27T20:29:04.141Z,4.10
2018-03-27T20:31:30.526Z,4.10
2018-03-27T20:33:58.788Z,4.10
2018-03-27T20:36:26.537Z,4.00
2018-03-27T20:38:53.176Z,4.00
2018-03-27T20:41:19.605Z,4.00
2018-03-27T20:43:46.746Z,3.90
2018-03-27T20:46:14.307Z,3.90
2018-03-27T20:48:40.695Z,3.80
2018-03-27T20:51:09.399Z,3.80
2018-03-27T20:53:36.537Z,3.70
2018-03-27T20:56:04.327Z,3.70
2018-03-27T20:58:30.711Z,3.70
2018-03-27T21:00:57.133Z,3.70
2018-03-27T21:03:23.794Z,3.60
2018-03-27T21:05:51.002Z,3.50
2018-03-27T21:08:17.446Z,3.50
2018-03-27T21:10:44.000Z,3.50
2018-03-27T21:13:10.414Z,3.40
2018-03-27T21:15:36.796Z,3.40
2018-03-27T21:18:03.248Z,3.40
2018-03-27T21:20:30.577Z,3.40
2018-03-27T21:22:57.073Z,3.40
2018-03-27T21:25:24.355Z,3.40
2018-03-27T21:27:51.510Z,3.30
2018-03-27T21:30:18.060Z,3.30
2018-03-27T21:32:44.544Z,3.30
2018-03-27T21:35:11.723Z,3.30
2018-03-27T21:37:38.158Z,3.30
2018-03-27T21:40:05.549Z,3.40
2018-03-27T21:42:32.707Z,3.40
2018-03-27T21:44:59.863Z,3.30
2018-03-27T21:47:26.301Z,3.30
2018-03-27T21:49:52.909Z,3.20
2018-03-27T21:52:19.326Z,3.10
2018-03-27T21:54:45.760Z,3.10
2018-03-27T21:57:13.356Z,3.10
2018-03-27T21:59:39.784Z,3.00
2018-03-27T22:02:06.213Z,3.00
2018-03-27T22:04:33.395Z,3.00
2018-03-27T22:06:59.777Z,3.00
2018-03-27T22:09:26.256Z,3.00
2018-03-27T22:11:52.576Z,3.00
2018-03-27T22:14:18.742Z,3.00
2018-03-27T22:16:44.900Z,3.00
2018-03-27T22:19:11.804Z,3.10
2018-03-27T22:21:37.966Z,3.10
2018-03-27T22:24:04.855Z,3.20
2018-03-27T22:26:31.017Z,3.20
2018-03-27T22:28:57.173Z,3.30
2018-03-27T22:31:23.431Z,3.40
2018-03-27T22:33:49.567Z,3.40
2018-03-27T22:36:15.722Z,3.50
2018-03-27T22:38:41.867Z,3.50
2018-03-27T22:41:08.787Z,3.50
2018-03-27T22:43:34.940Z,3.50
2018-03-27T22:46:01.863Z,3.50
2018-03-27T22:48:28.013Z,3.40
2018-03-27T22:50:54.897Z,3.40
2018-03-27T22:53:21.038Z,3.40
2018-03-27T22:55:47.210Z,3.40
2018-03-27T22:58:13.362Z,3.40
2018-03-27T23:00:39.530Z,3.50
2018-03-27T23:03:05.690Z,3.50
2018-03-27T23:05:31.860Z,3.40
2018-03-27T23:07:58.758Z,3.50
2018-03-27T23:10:24.924Z,3.40
2018-03-27T23:12:51.831Z,3.50
2018-03-27T23:15:18.017Z,3.50
2018-03-27T23:17:44.194Z,3.50
2018-03-27T23:20:10.342Z,3.50
2018-03-27T23:22:36.501Z,3.60
2018-03-27T23:25:02.680Z,3.70
2018-03-27T23:27:28.837Z,3.80
2018-03-27T23:29:54.989Z,3.90
2018-03-27T23:32:21.891Z,4.10
2018-03-27T23:34:48.080Z,4.10
2018-03-27T23:37:14.253Z,4.10
2018-03-27T23:39:40.419Z,4.10
2018-03-27T23:42:06.584Z,4.20
2018-03-27T23:44:32.740Z,4.20
2018-03-27T23:46:58.920Z,4.20
2018-03-27T23:49:25.071Z,4.30
2018-03-27T23:51:51.216Z,4.30
2018-03-27T23:54:17.388Z,4.30
2018-03-27T23:56:43.539Z,4.40
2018-03-27T23:59:09.680Z,4.30
